Time;durP1;ratioP1;P1;durP2;ratioP2;P2;SDS_P1;SDS_P2;PMS_P1;PMS_P2;Temp;Humidity;BMP_temperature;BMP_pressure;BME280_temperature;BME280_humidity;BME280_pressure;Samples;Min_cycle;Max_cycle;Signal;HPM_P1;HPM_P2
2021/08/22 00:01:10;;;;;;;10.63;5.97;;;14.10;99.90;;;;;;4859227;29;20587;-94
2021/08/22 00:04:00;;;;;;;9.77;6.57;;;14.10;99.90;;;;;;4841911;29;20522;-95
2021/08/22 00:07:02;;;;;;;9.65;6.47;;;14.10;99.90;;;;;;4855909;29;20822;-95
2021/08/22 00:10:44;;;;;;;10.00;6.07;;;14.20;99.90;;;;;;4853795;29;20435;-94
2021/08/22 00:14:12;;;;;;;9.30;6.20;;;14.20;99.90;;;;;;4876447;29;20429;-96
2021/08/22 00:17:31;;;;;;;8.85;5.75;;;14.10;99.90;;;;;;4882251;29;20968;-96
2021/08/22 00:20:26;;;;;;;8.25;6.10;;;14.20;99.90;;;;;;4871918;29;20438;-95
2021/08/22 00:23:07;;;;;;;8.70;5.97;;;14.20;99.90;;;;;;4869465;29;20529;-94
2021/08/22 00:26:14;;;;;;;9.63;6.70;;;14.20;99.90;;;;;;4869560;29;20437;-94
2021/08/22 00:29:44;;;;;;;8.27;5.68;;;14.20;99.90;;;;;;4863578;29;20525;-95
2021/08/22 00:32:55;;;;;;;9.20;5.85;;;14.20;99.90;;;;;;4892398;29;20416;-96
2021/08/22 01:22:19;;;;;;;9.50;5.45;;;15.00;99.90;;;;;;4989104;28;20440;-95
2021/08/22 01:25:12;;;;;;;8.07;5.35;;;14.90;99.90;;;;;;4961697;28;20444;-95
2021/08/22 01:28:29;;;;;;;8.00;5.35;;;14.90;99.90;;;;;;4991071;28;20906;-94
2021/08/22 01:31:22;;;;;;;10.77;5.57;;;14.80;99.90;;;;;;4988665;28;20412;-94
2021/08/22 01:34:52;;;;;;;6.95;5.50;;;14.80;99.90;;;;;;4932790;29;20461;-95
2021/08/22 01:37:51;;;;;;;8.95;5.55;;;14.80;99.90;;;;;;4931313;29;20523;-94
2021/08/22 01:41:13;;;;;;;8.40;5.80;;;14.80;99.90;;;;;;4854927;29;20443;-94
2021/08/22 01:44:01;;;;;;;10.45;5.70;;;14.80;99.90;;;;;;4842981;29;20427;-95
2021/08/22 01:47:11;;;;;;;10.52;5.57;;;14.70;99.90;;;;;;4856691;29;20455;-95
2021/08/22 01:50:23;;;;;;;8.37;5.67;;;14.70;99.90;;;;;;4858588;29;20500;-96
2021/08/22 01:53:32;;;;;;;7.65;5.53;;;14.70;99.90;;;;;;4853683;29;20492;-96
2021/08/22 01:56:42;;;;;;;9.50;5.88;;;14.60;99.90;;;;;;4855180;29;20500;-94
2021/08/22 01:59:38;;;;;;;8.40;5.60;;;14.40;99.90;;;;;;4816816;29;20440;-96
2021/08/22 02:02:34;;;;;;;9.75;6.00;;;14.50;99.90;;;;;;4836299;29;20422;-96
2021/08/22 02:06:17;;;;;;;9.13;6.23;;;14.40;99.90;;;;;;4834383;29;20469;-96
2021/08/22 02:10:04;;;;;;;11.13;5.97;;;14.30;99.90;;;;;;4825984;29;20413;-96
2021/08/22 02:13:07;;;;;;;9.07;6.45;;;14.20;99.90;;;;;;4809822;29;20431;-95
2021/08/22 02:16:22;;;;;;;8.63;5.90;;;14.10;99.90;;;;;;4827087;29;20523;-95
2021/08/22 02:36:12;;;;;;;8.30;6.35;;;14.00;99.90;;;;;;4968821;28;20429;-96
2021/08/22 02:43:26;;;;;;;10.60;6.95;;;14.30;99.90;;;;;;4815674;29;20452;-95
2021/08/22 02:46:56;;;;;;;6.97;6.07;;;14.40;99.90;;;;;;4779088;30;20432;-96
2021/08/22 02:53:57;;;;;;;10.13;6.13;;;14.50;99.90;;;;;;4767853;30;20419;-96
2021/08/22 02:57:21;;;;;;;9.35;6.22;;;14.60;99.90;;;;;;4774512;30;20890;-95
2021/08/22 03:00:25;;;;;;;7.88;5.90;;;14.70;99.90;;;;;;4753277;30;20438;-95
2021/08/22 03:03:40;;;;;;;8.75;6.10;;;14.70;99.90;;;;;;4782883;29;20453;-96
2021/08/22 03:06:50;;;;;;;8.80;6.43;;;14.70;99.90;;;;;;4768875;29;20497;-95
2021/08/22 03:10:18;;;;;;;9.13;6.00;;;14.80;99.90;;;;;;4800483;29;20406;-96
2021/08/22 03:13:51;;;;;;;10.15;6.03;;;14.80;99.90;;;;;;4911900;28;20420;-95
2021/08/22 03:17:10;;;;;;;10.57;6.03;;;15.00;99.90;;;;;;4911497;29;20429;-96
2021/08/22 03:20:29;;;;;;;9.27;6.80;;;15.10;99.90;;;;;;4909086;29;20429;-96
2021/08/22 03:23:17;;;;;;;9.27;6.40;;;15.00;99.90;;;;;;4891796;29;20444;-96
2021/08/22 03:26:04;;;;;;;8.55;6.30;;;15.00;99.90;;;;;;4915053;29;20509;-96
2021/08/22 03:29:34;;;;;;;8.97;6.03;;;15.10;99.90;;;;;;4917157;29;20428;-96
2021/08/22 03:32:17;;;;;;;12.85;6.68;;;15.00;99.90;;;;;;4914286;29;20433;-96
2021/08/22 03:35:05;;;;;;;7.90;6.40;;;15.00;99.90;;;;;;4926747;29;20429;-96
2021/08/22 03:38:25;;;;;;;7.78;6.50;;;14.90;99.90;;;;;;4923847;29;20445;-95
2021/08/22 03:41:52;;;;;;;9.05;6.82;;;14.80;99.90;;;;;;4889674;29;20436;-95
2021/08/22 03:45:43;;;;;;;9.63;7.03;;;14.70;99.90;;;;;;4857241;29;20496;-96
2021/08/22 03:49:14;;;;;;;10.55;6.95;;;14.70;99.90;;;;;;4774418;29;21034;-96
2021/08/22 03:56:53;;;;;;;9.55;7.28;;;14.50;99.90;;;;;;4775818;30;20536;-95
2021/08/22 03:59:46;;;;;;;10.55;7.55;;;14.50;99.90;;;;;;4784809;30;20496;-96
2021/08/22 04:02:38;;;;;;;12.55;7.50;;;14.50;99.90;;;;;;4784711;30;20452;-96
2021/08/22 04:05:29;;;;;;;24.55;15.57;;;14.40;99.90;;;;;;4796642;30;20441;-95
2021/08/22 04:08:12;;;;;;;22.33;16.17;;;14.30;99.90;;;;;;4804180;29;20470;-96
2021/08/22 04:15:06;;;;;;;13.10;10.20;;;14.30;99.90;;;;;;4786840;30;20435;-96
2021/08/22 04:18:23;;;;;;;10.98;7.70;;;14.40;99.90;;;;;;4808086;29;20536;-97
2021/08/22 04:22:01;;;;;;;11.20;7.50;;;14.40;99.90;;;;;;4870063;29;20422;-96
2021/08/22 04:25:34;;;;;;;14.70;10.30;;;14.70;99.90;;;;;;4864181;29;20484;-96
2021/08/22 04:29:16;;;;;;;16.48;10.90;;;14.60;99.90;;;;;;4907232;29;20557;-96
2021/08/22 04:36:35;;;;;;;12.52;8.60;;;14.70;99.90;;;;;;4930685;29;20427;-96
2021/08/22 04:40:21;;;;;;;12.63;8.67;;;14.90;99.90;;;;;;4931548;29;20587;-95
2021/08/22 04:43:42;;;;;;;12.13;8.20;;;14.90;99.90;;;;;;4929059;29;20574;-95
2021/08/22 04:47:09;;;;;;;14.23;9.55;;;14.90;99.90;;;;;;4907840;29;20416;-96
2021/08/22 04:50:55;;;;;;;14.82;8.15;;;15.10;99.90;;;;;;4929346;29;20427;-96
2021/08/22 04:53:37;;;;;;;9.65;7.32;;;15.20;99.90;;;;;;4915265;29;20432;-96
2021/08/22 04:56:31;;;;;;;10.98;7.43;;;15.20;99.90;;;;;;4928187;29;20429;-96
2021/08/22 04:59:15;;;;;;;9.32;6.80;;;15.30;99.90;;;;;;4860419;29;20433;-96
2021/08/22 05:02:17;;;;;;;12.52;7.57;;;15.40;99.90;;;;;;4898451;29;20467;-96
2021/08/22 05:14:10;;;;;;;9.80;5.93;;;15.80;99.90;;;;;;4974131;28;20406;-94
2021/08/22 05:17:16;;;;;;;9.38;5.60;;;15.90;99.90;;;;;;4973235;29;20448;-96
2021/08/22 05:19:45;;;;;;;8.02;5.45;;;16.00;99.90;;;;;;4974152;28;20430;-96
2021/08/22 05:22:18;;;;;;;9.10;5.13;;;16.20;99.90;;;;;;4970562;29;20452;-96
2021/08/22 05:24:47;;;;;;;9.00;5.50;;;16.40;99.90;;;;;;4972503;29;20434;-96
2021/08/22 05:28:14;;;;;;;7.68;5.43;;;16.50;99.90;;;;;;4971916;29;20405;-96
2021/08/22 05:30:57;;;;;;;7.10;5.15;;;16.60;99.90;;;;;;4973537;28;20921;-96
2021/08/22 05:33:54;;;;;;;9.13;5.40;;;16.70;99.90;;;;;;4955930;29;20450;-96
2021/08/22 05:36:58;;;;;;;7.13;5.07;;;16.80;99.90;;;;;;4990970;28;20485;-96
2021/08/22 05:40:01;;;;;;;8.50;5.35;;;16.90;99.90;;;;;;4920004;29;20522;-96
2021/08/22 05:43:19;;;;;;;7.10;5.80;;;16.70;99.90;;;;;;4892964;29;20458;-96
2021/08/22 05:46:44;;;;;;;8.23;5.50;;;16.70;99.90;;;;;;4930469;29;20414;-96
2021/08/22 05:49:33;;;;;;;7.90;5.28;;;17.00;99.90;;;;;;4920098;29;20419;-96
2021/08/22 05:52:22;;;;;;;6.70;5.00;;;17.10;99.90;;;;;;5022607;23;20413;-96
2021/08/22 05:55:11;;;;;;;7.85;5.40;;;17.20;99.90;;;;;;5001211;28;20410;-96
2021/08/22 05:57:56;;;;;;;8.60;5.30;;;17.30;99.90;;;;;;5053809;28;20492;-96
2021/08/22 06:00:40;;;;;;;6.82;5.32;;;17.50;99.90;;;;;;5037256;28;20502;-96
2021/08/22 06:03:08;;;;;;;8.98;5.80;;;17.40;99.90;;;;;;5004765;28;20779;-96
2021/08/22 06:05:44;;;;;;;8.27;5.88;;;17.40;99.90;;;;;;5024696;28;20477;-95
2021/08/22 06:08:11;;;;;;;7.70;5.50;;;17.50;99.90;;;;;;5009189;28;20426;-95
2021/08/22 06:10:39;;;;;;;8.45;5.53;;;17.80;99.90;;;;;;5030564;22;20917;-94
2021/08/22 06:13:14;;;;;;;6.78;5.38;;;18.10;99.90;;;;;;5037593;28;20978;-95
2021/08/22 06:15:49;;;;;;;9.18;4.88;;;18.40;99.90;;;;;;5026637;28;20430;-96
2021/08/22 06:18:20;;;;;;;7.90;4.80;;;18.50;99.90;;;;;;5016779;28;20504;-96
2021/08/22 06:21:05;;;;;;;7.38;4.75;;;18.50;99.90;;;;;;5026022;28;20474;-96
2021/08/22 06:23:45;;;;;;;6.20;4.57;;;18.50;99.90;;;;;;5107614;23;20451;-95
2021/08/22 06:26:12;;;;;;;7.25;4.65;;;18.50;99.90;;;;;;5035197;28;20433;-95
2021/08/22 06:29:00;;;;;;;7.70;4.55;;;18.40;99.90;;;;;;5047763;28;20427;-96
2021/08/22 06:36:08;;;;;;;6.30;4.95;;;18.20;99.90;;;;;;5156282;22;20511;-96
2021/08/22 06:39:12;;;;;;;6.85;5.38;;;17.70;99.90;;;;;;4971134;28;20499;-96
2021/08/22 06:42:04;;;;;;;8.15;5.45;;;17.00;99.90;;;;;;5002959;28;20515;-96
2021/08/22 06:44:38;;;;;;;9.15;6.00;;;16.60;99.90;;;;;;5004383;28;20420;-95
2021/08/22 06:47:10;;;;;;;10.93;6.70;;;16.20;99.90;;;;;;5026897;28;20429;-96
2021/08/22 06:49:38;;;;;;;9.10;6.55;;;15.90;99.90;;;;;;5006349;28;20515;-96
2021/08/22 06:52:18;;;;;;;10.55;7.05;;;15.70;99.90;;;;;;5010340;28;20571;-96
2021/08/22 06:54:45;;;;;;;11.20;8.18;;;15.50;99.90;;;;;;5009147;23;20449;-96
2021/08/22 06:57:12;;;;;;;19.15;9.55;;;15.40;99.90;;;;;;5000216;28;20445;-95
2021/08/22 07:00:00;;;;;;;18.45;10.70;;;15.20;99.90;;;;;;4999420;28;20434;-96
2021/08/22 07:05:23;;;;;;;16.45;11.88;;;15.20;99.90;;;;;;5053259;22;20416;-96
2021/08/22 07:07:51;;;;;;;18.02;12.73;;;15.20;99.90;;;;;;5005780;28;20936;-96
2021/08/22 07:10:34;;;;;;;21.55;12.63;;;15.10;99.90;;;;;;4999693;28;20409;-96
2021/08/22 07:17:01;;;;;;;20.13;12.88;;;15.30;99.90;;;;;;4942016;29;20765;-95
2021/08/22 07:19:28;;;;;;;15.80;11.18;;;15.30;99.90;;;;;;4929287;29;20514;-96
2021/08/22 07:21:56;;;;;;;14.65;11.70;;;15.30;99.90;;;;;;4931651;29;20482;-96
2021/08/22 07:24:23;;;;;;;15.52;10.35;;;15.40;99.90;;;;;;4931019;29;20428;-96
2021/08/22 07:27:03;;;;;;;15.88;10.93;;;15.50;99.90;;;;;;4932084;29;20420;-96
2021/08/22 07:29:32;;;;;;;20.08;11.23;;;15.50;99.90;;;;;;4931586;29;20427;-96
2021/08/22 07:32:26;;;;;;;16.23;10.88;;;15.50;99.90;;;;;;4931239;29;21040;-96
2021/08/22 07:34:58;;;;;;;19.45;11.38;;;15.60;99.90;;;;;;4929607;28;20482;-96
2021/08/22 07:37:26;;;;;;;18.98;13.00;;;15.60;99.90;;;;;;4978913;23;20603;-96
2021/08/22 07:45:29;;;;;;;14.07;10.25;;;15.90;99.90;;;;;;5004493;28;20988;-96
2021/08/22 07:48:02;;;;;;;16.77;10.75;;;16.00;99.90;;;;;;5014768;22;20444;-96
2021/08/22 07:50:29;;;;;;;15.02;9.70;;;16.10;99.90;;;;;;5006396;28;20878;-96
2021/08/22 07:52:59;;;;;;;13.90;10.75;;;16.30;99.90;;;;;;5009796;28;20449;-96
2021/08/22 07:55:33;;;;;;;17.33;10.27;;;16.30;99.90;;;;;;5006672;28;20521;-96
2021/08/22 07:58:01;;;;;;;24.33;16.17;;;16.30;99.90;;;;;;5003993;28;20470;-96
2021/08/22 08:00:28;;;;;;;18.07;12.73;;;16.30;99.90;;;;;;5001926;28;20794;-96
2021/08/22 08:03:00;;;;;;;16.60;11.50;;;16.30;99.90;;;;;;5003935;28;20434;-96
2021/08/22 08:05:28;;;;;;;12.48;9.93;;;16.40;99.90;;;;;;5028760;22;20431;-96
2021/08/22 08:07:55;;;;;;;23.45;16.20;;;16.30;99.90;;;;;;5045401;28;20403;-96
2021/08/22 08:10:35;;;;;;;14.55;10.18;;;16.40;99.90;;;;;;5048685;28;20413;-96
2021/08/22 08:13:41;;;;;;;12.68;10.18;;;16.40;99.90;;;;;;5037249;23;20860;-96
2021/08/22 08:16:14;;;;;;;16.58;9.80;;;16.50;99.90;;;;;;5023692;22;20424;-96
2021/08/22 08:18:46;;;;;;;16.10;10.87;;;16.60;99.90;;;;;;5022739;23;20502;-96
2021/08/22 08:25:08;;;;;;;17.13;11.45;;;16.40;99.90;;;;;;5200738;22;20437;-96
2021/08/22 08:28:09;;;;;;;17.52;11.15;;;16.40;99.90;;;;;;5296200;23;20460;-96
2021/08/22 08:36:13;;;;;;;15.25;10.52;;;16.50;99.90;;;;;;5092536;23;20401;-96
2021/08/22 08:51:04;;;;;;;19.52;10.73;;;17.10;99.90;;;;;;4979005;23;20409;-96
2021/08/22 08:53:52;;;;;;;17.23;10.95;;;17.20;99.90;;;;;;4999933;23;20472;-96
2021/08/22 08:59:01;;;;;;;14.57;10.27;;;17.40;99.90;;;;;;5390963;23;20450;-96
2021/08/22 09:04:43;;;;;;;17.43;10.73;;;17.40;99.90;;;;;;5175116;23;20424;-96
2021/08/22 09:10:43;;;;;;;16.67;11.02;;;17.50;99.90;;;;;;4995693;23;20474;-96
2021/08/22 09:20:59;;;;;;;15.60;11.80;;;17.50;99.90;;;;;;5111060;22;21401;-96
2021/08/22 09:35:24;;;;;;;19.77;15.05;;;17.50;99.90;;;;;;5022204;22;20488;-96
2021/08/22 09:38:27;;;;;;;20.92;16.25;;;17.60;99.90;;;;;;5039520;23;20442;-96
2021/08/22 09:48:25;;;;;;;24.80;17.23;;;17.70;99.90;;;;;;4980307;28;20424;-95
2021/08/22 09:51:04;;;;;;;22.25;16.20;;;18.10;99.90;;;;;;4980008;28;20532;-95
2021/08/22 09:54:03;;;;;;;18.75;15.25;;;18.60;99.90;;;;;;4978862;28;20434;-95
2021/08/22 09:57:07;;;;;;;17.92;13.82;;;19.20;99.90;;;;;;4979106;28;20936;-95
2021/08/22 09:59:55;;;;;;;21.93;15.93;;;19.50;99.90;;;;;;4977092;28;20482;-94
2021/08/22 10:02:53;;;;;;;21.13;16.50;;;19.10;99.90;;;;;;4979125;28;20439;-97
2021/08/22 10:05:33;;;;;;;21.53;16.40;;;19.00;99.90;;;;;;4979899;28;20459;-95
2021/08/22 10:08:15;;;;;;;19.73;15.23;;;18.90;99.90;;;;;;4981539;28;20435;-95
2021/08/22 10:10:46;;;;;;;19.98;16.13;;;18.90;99.90;;;;;;4978259;28;20772;-96
2021/08/22 10:13:13;;;;;;;21.80;14.85;;;18.90;99.90;;;;;;4977815;28;20424;-95
2021/08/22 10:15:43;;;;;;;20.88;15.68;;;18.70;99.90;;;;;;4978453;28;20428;-95
2021/08/22 10:18:10;;;;;;;18.45;16.08;;;18.50;99.90;;;;;;4977281;28;20444;-94
2021/08/22 10:20:42;;;;;;;18.45;16.10;;;18.60;99.90;;;;;;4978625;28;20427;-95
2021/08/22 10:23:43;;;;;;;19.67;14.65;;;18.70;99.90;;;;;;4978877;28;20432;-94
2021/08/22 10:26:44;;;;;;;18.17;15.48;;;19.10;99.90;;;;;;4977706;28;20432;-96
2021/08/22 10:29:17;;;;;;;19.85;15.77;;;19.00;99.90;;;;;;4978380;28;20425;-95
2021/08/22 10:31:50;;;;;;;19.67;15.73;;;19.10;99.90;;;;;;4977423;28;20482;-96
2021/08/22 10:34:17;;;;;;;18.10;15.60;;;18.80;99.90;;;;;;4977734;28;20428;-95
2021/08/22 10:36:44;;;;;;;21.92;15.95;;;18.70;99.90;;;;;;4976998;28;20495;-95
2021/08/22 10:39:25;;;;;;;21.73;16.25;;;18.70;99.90;;;;;;4976512;28;20440;-94
2021/08/22 10:42:00;;;;;;;22.85;15.85;;;18.90;99.90;;;;;;4976348;28;20434;-96
2021/08/22 10:44:33;;;;;;;19.75;14.73;;;19.10;99.90;;;;;;4977208;28;20883;-95
2021/08/22 10:47:08;;;;;;;19.33;15.60;;;19.30;99.90;;;;;;4977087;28;20514;-96
2021/08/22 10:49:51;;;;;;;18.92;15.18;;;19.40;99.90;;;;;;4976109;28;20424;-95
2021/08/22 10:52:32;;;;;;;18.67;14.48;;;19.50;99.90;;;;;;4976996;28;20424;-96
2021/08/22 10:55:08;;;;;;;17.13;14.00;;;19.70;99.90;;;;;;5026753;23;20531;-96
2021/08/22 11:00:24;;;;;;;16.77;13.20;;;20.10;99.90;;;;;;5771229;23;20452;-94
2021/08/22 11:03:22;;;;;;;19.27;13.88;;;20.50;99.90;;;;;;5112119;23;20469;-96
2021/08/22 11:06:20;;;;;;;17.48;13.93;;;20.70;99.90;;;;;;5007482;23;20480;-95
2021/08/22 11:08:50;;;;;;;17.42;13.73;;;20.80;99.90;;;;;;5091718;23;20442;-95
2021/08/22 11:14:03;;;;;;;17.27;13.52;;;20.70;99.90;;;;;;5030258;23;20416;-95
2021/08/22 11:17:10;;;;;;;16.27;13.90;;;20.80;99.90;;;;;;5040958;23;20426;-96
2021/08/22 11:19:41;;;;;;;16.05;13.00;;;20.80;99.90;;;;;;5022112;28;20430;-96
2021/08/22 11:22:41;;;;;;;17.52;12.35;;;21.00;99.90;;;;;;5055759;23;20419;-96
2021/08/22 11:25:12;;;;;;;15.95;11.13;;;21.00;99.90;;;;;;5019376;28;20931;-95
2021/08/22 11:27:45;;;;;;;15.93;12.10;;;21.20;99.90;;;;;;5000779;28;20428;-96
2021/08/22 11:30:12;;;;;;;18.98;12.27;;;21.30;99.90;;;;;;4998992;28;20796;-96
2021/08/22 11:32:50;;;;;;;15.68;11.85;;;21.30;99.90;;;;;;4999585;28;20416;-96
2021/08/22 11:35:21;;;;;;;18.42;12.90;;;21.30;99.90;;;;;;5003848;28;20484;-96
2021/08/22 11:37:49;;;;;;;17.57;12.77;;;21.40;99.90;;;;;;5006082;28;20516;-94
2021/08/22 11:40:18;;;;;;;17.83;13.40;;;21.10;99.90;;;;;;5006923;28;20432;-94
2021/08/22 11:42:50;;;;;;;21.98;13.52;;;20.90;99.90;;;;;;5003145;28;20425;-96
2021/08/22 11:45:23;;;;;;;17.13;14.20;;;20.50;99.90;;;;;;5006125;28;20417;-94
2021/08/22 11:47:56;;;;;;;16.92;14.13;;;20.30;99.90;;;;;;5006342;28;20465;-96
2021/08/22 11:50:33;;;;;;;15.45;13.38;;;20.40;99.90;;;;;;5005556;28;20436;-96
2021/08/22 11:53:03;;;;;;;18.63;15.43;;;20.20;99.90;;;;;;5008082;28;20431;-96
2021/08/22 11:55:33;;;;;;;18.52;15.13;;;20.20;99.90;;;;;;5001081;28;20507;-96
2021/08/22 11:58:13;;;;;;;18.73;15.35;;;20.10;99.90;;;;;;4999749;28;20515;-96
2021/08/22 12:00:43;;;;;;;18.90;14.87;;;20.00;99.90;;;;;;4999903;28;20421;-96
2021/08/22 12:03:20;;;;;;;17.55;14.68;;;19.90;99.90;;;;;;5000529;28;20505;-95
2021/08/22 12:06:20;;;;;;;19.27;15.88;;;19.90;99.90;;;;;;4998431;28;20562;-96
2021/08/22 12:08:50;;;;;;;18.43;15.27;;;19.90;99.90;;;;;;4990723;28;20421;-96
2021/08/22 12:11:38;;;;;;;17.35;15.23;;;20.10;99.90;;;;;;5003551;28;20456;-96
2021/08/22 12:14:15;;;;;;;19.98;15.65;;;20.30;99.90;;;;;;5003587;28;20425;-96
2021/08/22 12:17:20;;;;;;;20.05;14.00;;;20.40;99.90;;;;;;5007553;28;20436;-96
2021/08/22 12:20:27;;;;;;;17.70;12.77;;;20.70;99.90;;;;;;4987943;28;20451;-96
2021/08/22 12:23:04;;;;;;;16.98;12.20;;;21.20;99.90;;;;;;5005372;28;20432;-96
2021/08/22 12:25:36;;;;;;;17.77;13.20;;;21.30;99.90;;;;;;5008352;28;20440;-96
2021/08/22 12:28:22;;;;;;;15.88;12.05;;;21.20;99.90;;;;;;4990705;28;20966;-96
2021/08/22 12:31:05;;;;;;;18.45;12.02;;;21.20;99.90;;;;;;4987470;28;20784;-94
2021/08/22 12:33:36;;;;;;;16.67;11.50;;;21.30;99.90;;;;;;4987002;28;20427;-96
2021/08/22 12:36:18;;;;;;;15.27;10.57;;;21.40;99.90;;;;;;4999409;28;20436;-96
2021/08/22 12:38:51;;;;;;;14.45;10.88;;;21.30;99.90;;;;;;5001088;28;20472;-95
2021/08/22 12:41:41;;;;;;;13.23;10.80;;;21.30;99.90;;;;;;5007950;28;20431;-96
2021/08/22 12:46:51;;;;;;;11.85;9.73;;;21.20;99.90;;;;;;5052254;23;20435;-96
2021/08/22 12:49:31;;;;;;;14.60;10.05;;;21.10;99.90;;;;;;5027049;28;20518;-96
2021/08/22 12:52:15;;;;;;;12.55;9.30;;;21.20;99.90;;;;;;5005346;28;20430;-96
2021/08/22 12:54:52;;;;;;;12.23;9.27;;;21.20;99.90;;;;;;5028134;28;20794;-96
2021/08/22 12:57:20;;;;;;;13.97;9.67;;;21.30;99.90;;;;;;5026719;28;20490;-96
2021/08/22 12:59:51;;;;;;;12.87;9.37;;;21.30;99.90;;;;;;5042331;28;20918;-96
2021/08/22 13:02:25;;;;;;;31.92;19.65;;;21.50;99.90;;;;;;5024609;28;20426;-96
2021/08/22 13:05:47;;;;;;;12.13;8.82;;;21.60;99.90;;;;;;5050062;28;20442;-96
2021/08/22 13:13:46;;;;;;;21.13;9.45;;;21.60;99.90;;;;;;5267800;23;20804;-96
2021/08/22 13:25:12;;;;;;;14.05;7.38;;;21.80;99.90;;;;;;5044303;28;20419;-96
2021/08/22 13:28:16;;;;;;;9.13;6.60;;;21.90;99.90;;;;;;5024971;28;20510;-96
2021/08/22 13:30:50;;;;;;;7.83;6.67;;;22.00;99.90;;;;;;5019152;28;20797;-96
2021/08/22 13:33:47;;;;;;;10.30;7.33;;;22.00;99.90;;;;;;5023361;28;20426;-96
2021/08/22 13:36:55;;;;;;;11.00;7.50;;;21.90;99.90;;;;;;5025746;28;20416;-96
2021/08/22 13:39:29;;;;;;;11.77;6.70;;;21.70;99.90;;;;;;5023053;28;20427;-96
2021/08/22 13:41:56;;;;;;;8.13;6.35;;;21.50;99.90;;;;;;5022919;28;20422;-96
2021/08/22 13:47:45;;;;;;;9.48;6.35;;;21.40;99.90;;;;;;4959643;29;20432;-96
2021/08/22 13:50:20;;;;;;;10.77;6.97;;;21.40;99.90;;;;;;4944512;29;20446;-96
2021/08/22 13:52:49;;;;;;;12.43;6.97;;;21.50;99.90;;;;;;4943512;29;20551;-96
2021/08/22 13:55:22;;;;;;;9.25;6.45;;;21.60;99.90;;;;;;4943588;29;20543;-96
2021/08/22 13:57:52;;;;;;;10.23;6.88;;;21.60;99.90;;;;;;4943423;29;20433;-96
2021/08/22 14:00:28;;;;;;;11.43;6.72;;;21.60;99.90;;;;;;4942791;29;20440;-96
2021/08/22 14:02:56;;;;;;;9.77;6.50;;;21.40;99.90;;;;;;4941539;29;20894;-96
2021/08/22 14:05:56;;;;;;;9.25;6.40;;;21.30;99.90;;;;;;4942251;28;20487;-96
2021/08/22 14:08:38;;;;;;;8.90;6.28;;;21.30;99.90;;;;;;4945409;29;20434;-96
2021/08/22 14:11:52;;;;;;;8.98;6.15;;;21.30;99.90;;;;;;4937784;29;20886;-96
2021/08/22 14:14:34;;;;;;;12.02;6.28;;;21.70;99.90;;;;;;4943492;29;20482;-96
2021/08/22 14:17:17;;;;;;;8.00;5.45;;;21.60;99.90;;;;;;4940469;29;20488;-96
2021/08/22 14:20:19;;;;;;;7.68;5.70;;;21.70;99.90;;;;;;4943445;29;20445;-96
2021/08/22 14:23:40;;;;;;;;;;;;;;;;;;;;;
2021/08/22 14:29:12;;;;;;;8.88;4.70;;;21.70;99.90;;;;;;5017384;28;20425;-96
2021/08/22 14:32:45;;;;;;;9.02;4.70;;;21.80;99.90;;;;;;4989273;28;20497;-96
2021/08/22 14:36:27;;;;;;;7.43;5.23;;;21.90;99.90;;;;;;4986313;28;20426;-96
2021/08/22 14:40:08;;;;;;;6.00;4.70;;;22.00;99.90;;;;;;4951876;28;20445;-96
2021/08/22 14:43:26;;;;;;;7.28;4.93;;;21.90;99.90;;;;;;4867428;29;20434;-96
2021/08/22 14:46:35;;;;;;;10.67;5.33;;;21.80;99.90;;;;;;4866876;29;20494;-96
2021/08/22 14:49:11;;;;;;;6.47;4.65;;;21.50;99.90;;;;;;4850350;29;20468;-96
2021/08/22 14:52:02;;;;;;;11.70;6.85;;;21.20;99.90;;;;;;4849686;29;20485;-96
2021/08/22 14:54:31;;;;;;;9.25;5.75;;;21.10;99.90;;;;;;4906958;23;20450;-96
2021/08/22 15:12:51;;;;;;;5.80;4.30;;;20.20;99.90;;;;;;4962000;29;20438;-94
2021/08/22 15:15:19;;;;;;;5.10;4.13;;;20.20;99.90;;;;;;4958047;29;20441;-96
2021/08/22 15:17:54;;;;;;;6.70;4.30;;;20.10;99.90;;;;;;4955915;28;20508;-93
2021/08/22 15:20:21;;;;;;;5.73;4.10;;;20.00;99.90;;;;;;4940026;29;20441;-94
2021/08/22 15:22:48;;;;;;;6.30;4.35;;;19.90;99.90;;;;;;4941661;29;20430;-94
2021/08/22 15:25:16;;;;;;;7.68;4.82;;;19.90;99.90;;;;;;4943951;29;20453;-94
2021/08/22 15:27:43;;;;;;;6.60;4.50;;;19.80;99.90;;;;;;4939831;29;20426;-96
2021/08/22 15:30:10;;;;;;;6.10;4.72;;;19.70;99.90;;;;;;4940602;29;20425;-96
2021/08/22 15:32:39;;;;;;;8.27;5.03;;;19.60;99.90;;;;;;4955436;29;20586;-95
2021/08/22 15:35:06;;;;;;;6.95;4.82;;;19.50;99.90;;;;;;4955872;29;20495;-92
2021/08/22 15:37:33;;;;;;;7.18;5.18;;;19.40;99.90;;;;;;4942009;29;20846;-92
2021/08/22 15:40:00;;;;;;;7.13;5.50;;;19.30;99.90;;;;;;4941990;29;20464;-94
2021/08/22 15:42:27;;;;;;;8.85;6.15;;;19.20;99.90;;;;;;4940131;29;20425;-96
2021/08/22 15:44:54;;;;;;;9.20;6.10;;;19.10;99.90;;;;;;4939985;29;20429;-93
2021/08/22 15:47:21;;;;;;;8.00;6.00;;;19.10;99.90;;;;;;4940863;29;20429;-94
2021/08/22 15:49:50;;;;;;;7.28;6.00;;;19.00;99.90;;;;;;4944741;29;20456;-93
2021/08/22 15:52:17;;;;;;;8.77;6.45;;;18.70;99.90;;;;;;4956329;29;20960;-92
2021/08/22 15:54:45;;;;;;;9.95;6.10;;;18.60;99.90;;;;;;4943712;29;20516;-96
2021/08/22 15:57:12;;;;;;;9.23;6.20;;;18.50;99.90;;;;;;4940137;29;20426;-95
2021/08/22 15:59:39;;;;;;;9.03;6.23;;;18.60;99.90;;;;;;4939699;29;20437;-93
2021/08/22 16:02:09;;;;;;;9.23;6.10;;;18.70;99.90;;;;;;4940959;29;20499;-94
2021/08/22 16:04:47;;;;;;;7.97;6.05;;;18.70;99.90;;;;;;4941971;29;20434;-96
2021/08/22 16:07:20;;;;;;;9.45;5.22;;;18.80;99.90;;;;;;4948443;29;20406;-94
2021/08/22 16:09:48;;;;;;;7.85;5.30;;;18.60;99.90;;;;;;4953875;29;20492;-94
2021/08/22 16:12:15;;;;;;;7.03;5.68;;;18.50;99.90;;;;;;4923050;29;20917;-90
2021/08/22 16:14:42;;;;;;;8.00;5.50;;;18.50;99.90;;;;;;4919487;29;20428;-92
2021/08/22 16:17:10;;;;;;;8.55;6.20;;;18.50;99.90;;;;;;4917997;29;20948;-93
2021/08/22 16:19:37;;;;;;;7.13;5.33;;;18.60;99.90;;;;;;4918269;29;20854;-91
2021/08/22 16:22:06;;;;;;;6.97;5.90;;;18.60;99.90;;;;;;4917596;29;20433;-95
2021/08/22 16:24:33;;;;;;;8.20;5.88;;;18.50;99.90;;;;;;4933504;29;20445;-92
2021/08/22 16:27:01;;;;;;;8.57;5.27;;;18.40;99.90;;;;;;4921333;29;20862;-91
2021/08/22 16:29:28;;;;;;;6.82;5.38;;;18.40;99.90;;;;;;4919166;29;20437;-93
2021/08/22 16:31:55;;;;;;;6.90;5.77;;;18.30;99.90;;;;;;4937416;29;20944;-93
2021/08/22 16:34:23;;;;;;;7.57;4.93;;;18.30;99.90;;;;;;4937765;29;21013;-94
2021/08/22 16:36:52;;;;;;;8.75;5.68;;;18.20;99.90;;;;;;4923624;29;20522;-94
2021/08/22 16:39:19;;;;;;;8.88;5.80;;;18.10;99.90;;;;;;4939967;29;20444;-94
2021/08/22 16:41:46;;;;;;;7.50;5.43;;;18.10;99.90;;;;;;4922468;29;20437;-96
2021/08/22 16:44:17;;;;;;;8.95;5.70;;;18.10;99.90;;;;;;4920927;29;20437;-96
2021/08/22 16:46:52;;;;;;;8.77;5.65;;;18.00;99.90;;;;;;4921910;29;20452;-96
2021/08/22 16:49:19;;;;;;;9.05;5.90;;;18.00;99.90;;;;;;4920836;29;20429;-96
2021/08/22 16:51:46;;;;;;;7.15;5.72;;;18.00;99.90;;;;;;4921110;29;20924;-94
2021/08/22 16:54:17;;;;;;;7.95;5.70;;;18.10;99.90;;;;;;4922746;29;20436;-96
2021/08/22 16:56:44;;;;;;;6.95;5.30;;;18.00;99.90;;;;;;4939812;29;20511;-96
2021/08/22 16:59:11;;;;;;;8.57;5.55;;;18.00;99.90;;;;;;4920972;29;20449;-96
2021/08/22 17:05:21;;;;;;;7.30;5.50;;;17.90;99.90;;;;;;5515635;23;20455;-92
2021/08/22 17:07:52;;;;;;;6.97;5.70;;;17.80;99.90;;;;;;5008751;28;20424;-96
2021/08/22 17:10:20;;;;;;;8.70;5.90;;;17.70;99.90;;;;;;5006240;28;20455;-95
2021/08/22 17:12:47;;;;;;;11.00;5.68;;;17.70;99.90;;;;;;5006639;28;20427;-96
2021/08/22 17:15:16;;;;;;;10.05;6.30;;;17.60;99.90;;;;;;5003049;28;20441;-95
2021/08/22 17:17:44;;;;;;;10.45;6.57;;;17.60;99.90;;;;;;5018424;28;20419;-96
2021/08/22 17:20:11;;;;;;;9.32;6.22;;;17.50;99.90;;;;;;5003697;28;20436;-96
2021/08/22 17:22:39;;;;;;;8.57;3.45;;;17.50;99.90;;;;;;5005342;28;20504;-96
2021/08/22 17:33:59;;;;;;;10.27;2.42;;;15.60;99.90;;;;;;5036509;28;20393;-93
2021/08/22 17:39:46;;;;;;;0.30;0.30;;;15.10;99.90;;;;;;5003826;23;20452;-94
2021/08/22 17:42:17;;;;;;;0.10;0.10;;;15.00;99.90;;;;;;5162386;23;20432;-94
2021/08/22 17:44:44;;;;;;;0.10;0.10;;;15.00;99.90;;;;;;5032172;23;20879;-94
2021/08/22 17:47:15;;;;;;;0.10;0.10;;;14.90;99.90;;;;;;5029377;28;20443;-94
2021/08/22 17:49:46;;;;;;;1.10;0.30;;;14.80;99.90;;;;;;5025520;28;20421;-93
2021/08/22 17:52:14;;;;;;;0.10;0.10;;;14.80;99.90;;;;;;5029229;23;20932;-94
2021/08/22 17:54:41;;;;;;;0.13;0.13;;;14.90;99.90;;;;;;5003322;28;20423;-95
2021/08/22 17:57:08;;;;;;;0.10;0.10;;;14.90;99.90;;;;;;5026813;23;20425;-94
2021/08/22 17:59:51;;;;;;;0.20;0.20;;;14.90;99.90;;;;;;5029586;23;20438;-94
2021/08/22 18:05:21;;;;;;;0.20;0.20;;;14.90;99.90;;;;;;5026490;28;20425;-94